sensor_id;sensor_type;location;lat;lon;timestamp;P1;durP1;ratioP1;P2;durP2;ratioP2
72924;SDS011;61070;50.794;7.054;2023-06-05T00:01:42;5.93;;;2.20;;
72924;SDS011;61070;50.794;7.054;2023-06-05T00:04:08;4.32;;;2.55;;
72924;SDS011;61070;50.794;7.054;2023-06-05T00:06:33;4.63;;;1.98;;
72924;SDS011;61070;50.794;7.054;2023-06-05T00:08:59;5.13;;;2.40;;
72924;SDS011;61070;50.794;7.054;2023-06-05T00:11:25;7.03;;;2.50;;
72924;SDS011;61070;50.794;7.054;2023-06-05T00:13:51;3.30;;;2.15;;
72924;SDS011;61070;50.794;7.054;2023-06-05T00:16:17;5.55;;;2.67;;
72924;SDS011;61070;50.794;7.054;2023-06-05T00:18:42;4.78;;;2.28;;
72924;SDS011;61070;50.794;7.054;2023-06-05T00:21:14;6.93;;;2.10;;
72924;SDS011;61070;50.794;7.054;2023-06-05T00:23:44;4.85;;;1.63;;
72924;SDS011;61070;50.794;7.054;2023-06-05T00:26:09;2.70;;;1.98;;
72924;SDS011;61070;50.794;7.054;2023-06-05T00:28:34;3.90;;;2.20;;
72924;SDS011;61070;50.794;7.054;2023-06-05T00:31:00;3.63;;;1.92;;
72924;SDS011;61070;50.794;7.054;2023-06-05T00:33:26;2.63;;;2.00;;
72924;SDS011;61070;50.794;7.054;2023-06-05T00:35:52;4.75;;;2.17;;
72924;SDS011;61070;50.794;7.054;2023-06-05T00:38:17;3.17;;;2.03;;
72924;SDS011;61070;50.794;7.054;2023-06-05T00:40:43;7.22;;;2.13;;
72924;SDS011;61070;50.794;7.054;2023-06-05T00:43:08;7.10;;;2.45;;
72924;SDS011;61070;50.794;7.054;2023-06-05T00:45:33;5.68;;;2.30;;
72924;SDS011;61070;50.794;7.054;2023-06-05T00:47:59;3.20;;;2.00;;
72924;SDS011;61070;50.794;7.054;2023-06-05T00:50:24;3.90;;;2.17;;
72924;SDS011;61070;50.794;7.054;2023-06-05T00:52:50;5.60;;;2.53;;
72924;SDS011;61070;50.794;7.054;2023-06-05T00:55:17;9.82;;;2.33;;
72924;SDS011;61070;50.794;7.054;2023-06-05T00:57:42;4.75;;;2.58;;
72924;SDS011;61070;50.794;7.054;2023-06-05T01:00:09;5.45;;;2.22;;
72924;SDS011;61070;50.794;7.054;2023-06-05T01:02:37;5.38;;;2.42;;
72924;SDS011;61070;50.794;7.054;2023-06-05T01:05:03;6.32;;;2.25;;
72924;SDS011;61070;50.794;7.054;2023-06-05T01:07:29;4.82;;;2.00;;
72924;SDS011;61070;50.794;7.054;2023-06-05T01:09:58;7.28;;;2.08;;
72924;SDS011;61070;50.794;7.054;2023-06-05T01:15:07;5.65;;;2.22;;
72924;SDS011;61070;50.794;7.054;2023-06-05T01:17:33;2.88;;;2.10;;
72924;SDS011;61070;50.794;7.054;2023-06-05T01:19:59;5.65;;;2.10;;
72924;SDS011;61070;50.794;7.054;2023-06-05T01:22:27;6.32;;;2.30;;
72924;SDS011;61070;50.794;7.054;2023-06-05T01:24:53;3.75;;;1.85;;
72924;SDS011;61070;50.794;7.054;2023-06-05T01:27:21;5.55;;;2.50;;
72924;SDS011;61070;50.794;7.054;2023-06-05T01:32:41;4.28;;;2.60;;
72924;SDS011;61070;50.794;7.054;2023-06-05T01:35:12;7.50;;;2.60;;
72924;SDS011;61070;50.794;7.054;2023-06-05T01:37:44;4.07;;;2.10;;
72924;SDS011;61070;50.794;7.054;2023-06-05T01:40:14;10.82;;;1.92;;
72924;SDS011;61070;50.794;7.054;2023-06-05T01:42:41;5.88;;;2.00;;
72924;SDS011;61070;50.794;7.054;2023-06-05T01:45:08;8.52;;;2.97;;
72924;SDS011;61070;50.794;7.054;2023-06-05T01:47:36;5.57;;;2.22;;
72924;SDS011;61070;50.794;7.054;2023-06-05T01:50:02;4.28;;;2.55;;
72924;SDS011;61070;50.794;7.054;2023-06-05T01:52:28;4.72;;;2.88;;
72924;SDS011;61070;50.794;7.054;2023-06-05T01:54:53;4.75;;;2.35;;
72924;SDS011;61070;50.794;7.054;2023-06-05T01:57:20;9.52;;;3.58;;
72924;SDS011;61070;50.794;7.054;2023-06-05T01:59:45;3.33;;;2.13;;
72924;SDS011;61070;50.794;7.054;2023-06-05T02:02:11;5.95;;;2.55;;
72924;SDS011;61070;50.794;7.054;2023-06-05T02:04:38;4.93;;;2.53;;
72924;SDS011;61070;50.794;7.054;2023-06-05T02:07:03;5.82;;;2.28;;
72924;SDS011;61070;50.794;7.054;2023-06-05T02:09:30;9.35;;;2.10;;
72924;SDS011;61070;50.794;7.054;2023-06-05T02:11:58;7.80;;;2.08;;
72924;SDS011;61070;50.794;7.054;2023-06-05T02:14:29;2.72;;;1.85;;
72924;SDS011;61070;50.794;7.054;2023-06-05T02:16:56;3.90;;;2.10;;
72924;SDS011;61070;50.794;7.054;2023-06-05T02:19:22;7.03;;;2.25;;
72924;SDS011;61070;50.794;7.054;2023-06-05T02:21:47;7.10;;;3.03;;
72924;SDS011;61070;50.794;7.054;2023-06-05T02:24:13;6.50;;;2.20;;
72924;SDS011;61070;50.794;7.054;2023-06-05T02:26:38;5.45;;;2.47;;
72924;SDS011;61070;50.794;7.054;2023-06-05T02:29:03;10.35;;;3.00;;
72924;SDS011;61070;50.794;7.054;2023-06-05T02:31:29;5.30;;;2.42;;
72924;SDS011;61070;50.794;7.054;2023-06-05T02:33:55;6.20;;;2.28;;
72924;SDS011;61070;50.794;7.054;2023-06-05T02:36:24;3.13;;;2.10;;
72924;SDS011;61070;50.794;7.054;2023-06-05T02:38:50;2.92;;;1.98;;
72924;SDS011;61070;50.794;7.054;2023-06-05T02:41:18;6.72;;;2.58;;
72924;SDS011;61070;50.794;7.054;2023-06-05T02:43:44;8.23;;;2.95;;
72924;SDS011;61070;50.794;7.054;2023-06-05T02:46:10;4.93;;;2.70;;
72924;SDS011;61070;50.794;7.054;2023-06-05T02:48:36;5.35;;;2.47;;
72924;SDS011;61070;50.794;7.054;2023-06-05T02:51:01;3.47;;;2.42;;
72924;SDS011;61070;50.794;7.054;2023-06-05T02:53:28;5.97;;;2.50;;
72924;SDS011;61070;50.794;7.054;2023-06-05T02:55:53;9.73;;;2.58;;
72924;SDS011;61070;50.794;7.054;2023-06-05T02:58:20;5.25;;;2.78;;
72924;SDS011;61070;50.794;7.054;2023-06-05T03:00:46;5.47;;;2.67;;
72924;SDS011;61070;50.794;7.054;2023-06-05T03:03:12;4.10;;;2.47;;
72924;SDS011;61070;50.794;7.054;2023-06-05T03:05:37;8.68;;;2.72;;
72924;SDS011;61070;50.794;7.054;2023-06-05T03:08:03;5.53;;;3.03;;
72924;SDS011;61070;50.794;7.054;2023-06-05T03:10:29;6.32;;;3.10;;
72924;SDS011;61070;50.794;7.054;2023-06-05T03:12:54;6.22;;;2.92;;
72924;SDS011;61070;50.794;7.054;2023-06-05T03:15:20;7.13;;;2.67;;
72924;SDS011;61070;50.794;7.054;2023-06-05T03:17:45;7.43;;;3.15;;
72924;SDS011;61070;50.794;7.054;2023-06-05T03:20:11;7.28;;;2.90;;
72924;SDS011;61070;50.794;7.054;2023-06-05T03:22:37;3.55;;;2.58;;
72924;SDS011;61070;50.794;7.054;2023-06-05T03:25:03;10.48;;;2.95;;
72924;SDS011;61070;50.794;7.054;2023-06-05T03:27:29;4.55;;;2.70;;
72924;SDS011;61070;50.794;7.054;2023-06-05T03:29:54;9.32;;;2.85;;
72924;SDS011;61070;50.794;7.054;2023-06-05T03:32:21;4.93;;;3.00;;
72924;SDS011;61070;50.794;7.054;2023-06-05T03:34:46;8.38;;;3.70;;
72924;SDS011;61070;50.794;7.054;2023-06-05T03:37:13;5.18;;;3.45;;
72924;SDS011;61070;50.794;7.054;2023-06-05T03:39:39;6.30;;;2.95;;
72924;SDS011;61070;50.794;7.054;2023-06-05T03:42:04;4.43;;;2.63;;
72924;SDS011;61070;50.794;7.054;2023-06-05T03:44:32;4.95;;;2.75;;
72924;SDS011;61070;50.794;7.054;2023-06-05T03:46:57;5.40;;;2.75;;
72924;SDS011;61070;50.794;7.054;2023-06-05T03:49:22;9.63;;;2.95;;
72924;SDS011;61070;50.794;7.054;2023-06-05T03:51:48;8.32;;;3.28;;
72924;SDS011;61070;50.794;7.054;2023-06-05T03:54:13;11.75;;;2.72;;
72924;SDS011;61070;50.794;7.054;2023-06-05T03:56:41;6.60;;;3.20;;
72924;SDS011;61070;50.794;7.054;2023-06-05T03:59:14;7.25;;;3.05;;
72924;SDS011;61070;50.794;7.054;2023-06-05T04:01:46;6.75;;;3.25;;
72924;SDS011;61070;50.794;7.054;2023-06-05T04:04:12;8.13;;;3.00;;
72924;SDS011;61070;50.794;7.054;2023-06-05T04:06:37;6.15;;;2.80;;
72924;SDS011;61070;50.794;7.054;2023-06-05T04:09:03;6.93;;;2.70;;
72924;SDS011;61070;50.794;7.054;2023-06-05T04:11:36;5.68;;;2.97;;
72924;SDS011;61070;50.794;7.054;2023-06-05T04:14:05;7.18;;;2.67;;
72924;SDS011;61070;50.794;7.054;2023-06-05T04:16:30;9.93;;;3.42;;
72924;SDS011;61070;50.794;7.054;2023-06-05T04:18:56;6.63;;;3.28;;
72924;SDS011;61070;50.794;7.054;2023-06-05T04:21:21;8.68;;;3.88;;
72924;SDS011;61070;50.794;7.054;2023-06-05T04:23:46;6.90;;;3.45;;
72924;SDS011;61070;50.794;7.054;2023-06-05T04:26:12;7.07;;;2.65;;
72924;SDS011;61070;50.794;7.054;2023-06-05T04:28:38;13.18;;;3.05;;
72924;SDS011;61070;50.794;7.054;2023-06-05T04:31:04;5.38;;;3.30;;
72924;SDS011;61070;50.794;7.054;2023-06-05T04:33:29;7.13;;;2.70;;
72924;SDS011;61070;50.794;7.054;2023-06-05T04:35:54;11.30;;;3.40;;
72924;SDS011;61070;50.794;7.054;2023-06-05T04:38:20;8.82;;;3.60;;
72924;SDS011;61070;50.794;7.054;2023-06-05T04:40:46;5.30;;;3.00;;
72924;SDS011;61070;50.794;7.054;2023-06-05T04:43:13;8.27;;;3.15;;
72924;SDS011;61070;50.794;7.054;2023-06-05T04:45:39;11.85;;;4.15;;
72924;SDS011;61070;50.794;7.054;2023-06-05T04:48:04;5.60;;;3.50;;
72924;SDS011;61070;50.794;7.054;2023-06-05T04:50:30;5.93;;;3.42;;
72924;SDS011;61070;50.794;7.054;2023-06-05T04:52:55;10.52;;;3.15;;
72924;SDS011;61070;50.794;7.054;2023-06-05T04:55:21;10.00;;;3.88;;
72924;SDS011;61070;50.794;7.054;2023-06-05T04:57:47;6.32;;;3.40;;
72924;SDS011;61070;50.794;7.054;2023-06-05T05:00:13;9.30;;;3.50;;
72924;SDS011;61070;50.794;7.054;2023-06-05T05:02:42;9.55;;;3.83;;
72924;SDS011;61070;50.794;7.054;2023-06-05T05:05:08;12.35;;;4.03;;
72924;SDS011;61070;50.794;7.054;2023-06-05T05:07:33;10.90;;;3.63;;
72924;SDS011;61070;50.794;7.054;2023-06-05T05:10:00;10.15;;;3.83;;
72924;SDS011;61070;50.794;7.054;2023-06-05T05:12:25;12.15;;;3.80;;
72924;SDS011;61070;50.794;7.054;2023-06-05T05:14:51;5.45;;;3.88;;
72924;SDS011;61070;50.794;7.054;2023-06-05T05:17:16;9.32;;;3.47;;
72924;SDS011;61070;50.794;7.054;2023-06-05T05:19:44;5.22;;;3.35;;
72924;SDS011;61070;50.794;7.054;2023-06-05T05:22:10;8.63;;;3.50;;
72924;SDS011;61070;50.794;7.054;2023-06-05T05:24:36;6.57;;;3.58;;
72924;SDS011;61070;50.794;7.054;2023-06-05T05:27:01;8.25;;;3.10;;
72924;SDS011;61070;50.794;7.054;2023-06-05T05:29:26;7.10;;;3.47;;
72924;SDS011;61070;50.794;7.054;2023-06-05T05:31:52;4.38;;;2.60;;
72924;SDS011;61070;50.794;7.054;2023-06-05T05:34:18;6.00;;;3.08;;
72924;SDS011;61070;50.794;7.054;2023-06-05T05:36:43;12.70;;;3.80;;
72924;SDS011;61070;50.794;7.054;2023-06-05T05:39:09;7.85;;;3.72;;
72924;SDS011;61070;50.794;7.054;2023-06-05T05:41:35;5.95;;;3.28;;
72924;SDS011;61070;50.794;7.054;2023-06-05T05:44:00;8.15;;;3.40;;
72924;SDS011;61070;50.794;7.054;2023-06-05T05:46:25;10.98;;;2.80;;
72924;SDS011;61070;50.794;7.054;2023-06-05T05:48:51;10.95;;;3.22;;
72924;SDS011;61070;50.794;7.054;2023-06-05T05:51:16;11.52;;;3.55;;
72924;SDS011;61070;50.794;7.054;2023-06-05T05:53:42;7.43;;;3.90;;
72924;SDS011;61070;50.794;7.054;2023-06-05T05:56:07;8.50;;;3.00;;
72924;SDS011;61070;50.794;7.054;2023-06-05T05:58:32;13.07;;;2.90;;
72924;SDS011;61070;50.794;7.054;2023-06-05T06:00:59;10.57;;;3.45;;
72924;SDS011;61070;50.794;7.054;2023-06-05T06:03:25;6.57;;;2.85;;
72924;SDS011;61070;50.794;7.054;2023-06-05T06:05:51;6.50;;;3.05;;
72924;SDS011;61070;50.794;7.054;2023-06-05T06:08:17;5.78;;;2.97;;
72924;SDS011;61070;50.794;7.054;2023-06-05T06:10:43;6.40;;;3.40;;
72924;SDS011;61070;50.794;7.054;2023-06-05T06:13:08;6.35;;;3.17;;
72924;SDS011;61070;50.794;7.054;2023-06-05T06:15:35;8.02;;;3.40;;
72924;SDS011;61070;50.794;7.054;2023-06-05T06:18:04;7.25;;;3.38;;
72924;SDS011;61070;50.794;7.054;2023-06-05T06:20:30;8.40;;;3.05;;
72924;SDS011;61070;50.794;7.054;2023-06-05T06:22:56;7.05;;;3.55;;
72924;SDS011;61070;50.794;7.054;2023-06-05T06:25:21;8.05;;;2.80;;
72924;SDS011;61070;50.794;7.054;2023-06-05T06:27:50;9.80;;;3.63;;
72924;SDS011;61070;50.794;7.054;2023-06-05T06:30:18;6.05;;;3.20;;
72924;SDS011;61070;50.794;7.054;2023-06-05T06:32:43;5.35;;;3.35;;
72924;SDS011;61070;50.794;7.054;2023-06-05T06:35:09;7.53;;;3.17;;
72924;SDS011;61070;50.794;7.054;2023-06-05T06:37:34;7.18;;;3.35;;
72924;SDS011;61070;50.794;7.054;2023-06-05T06:40:00;6.00;;;3.00;;
72924;SDS011;61070;50.794;7.054;2023-06-05T06:42:26;6.45;;;3.10;;
72924;SDS011;61070;50.794;7.054;2023-06-05T06:44:54;7.13;;;3.10;;
72924;SDS011;61070;50.794;7.054;2023-06-05T06:47:23;6.25;;;2.78;;
72924;SDS011;61070;50.794;7.054;2023-06-05T06:49:50;6.82;;;3.38;;
72924;SDS011;61070;50.794;7.054;2023-06-05T06:52:15;9.77;;;3.00;;
72924;SDS011;61070;50.794;7.054;2023-06-05T06:54:41;7.10;;;3.05;;
72924;SDS011;61070;50.794;7.054;2023-06-05T06:57:06;4.63;;;2.45;;
72924;SDS011;61070;50.794;7.054;2023-06-05T06:59:33;8.77;;;4.05;;
72924;SDS011;61070;50.794;7.054;2023-06-05T07:02:08;6.22;;;2.80;;
72924;SDS011;61070;50.794;7.054;2023-06-05T07:04:40;4.10;;;2.30;;
72924;SDS011;61070;50.794;7.054;2023-06-05T07:07:10;6.32;;;2.80;;
72924;SDS011;61070;50.794;7.054;2023-06-05T07:09:37;11.07;;;3.40;;
72924;SDS011;61070;50.794;7.054;2023-06-05T07:12:03;6.65;;;3.08;;
72924;SDS011;61070;50.794;7.054;2023-06-05T07:14:32;3.38;;;2.40;;
72924;SDS011;61070;50.794;7.054;2023-06-05T07:17:00;8.02;;;2.17;;
72924;SDS011;61070;50.794;7.054;2023-06-05T07:19:27;6.50;;;1.88;;
72924;SDS011;61070;50.794;7.054;2023-06-05T07:21:56;4.80;;;2.22;;
72924;SDS011;61070;50.794;7.054;2023-06-05T07:24:23;6.78;;;2.47;;
72924;SDS011;61070;50.794;7.054;2023-06-05T07:26:49;4.60;;;2.53;;
72924;SDS011;61070;50.794;7.054;2023-06-05T07:29:18;7.35;;;2.47;;
72924;SDS011;61070;50.794;7.054;2023-06-05T07:31:45;10.32;;;3.50;;
72924;SDS011;61070;50.794;7.054;2023-06-05T07:34:11;7.70;;;2.35;;
72924;SDS011;61070;50.794;7.054;2023-06-05T07:36:38;9.02;;;3.47;;
72924;SDS011;61070;50.794;7.054;2023-06-05T07:39:03;8.02;;;2.40;;
72924;SDS011;61070;50.794;7.054;2023-06-05T07:41:29;6.68;;;2.45;;
72924;SDS011;61070;50.794;7.054;2023-06-05T07:43:55;11.75;;;3.25;;
72924;SDS011;61070;50.794;7.054;2023-06-05T07:46:20;11.00;;;2.78;;
72924;SDS011;61070;50.794;7.054;2023-06-05T07:48:45;8.05;;;2.60;;
72924;SDS011;61070;50.794;7.054;2023-06-05T07:51:11;5.10;;;2.85;;
72924;SDS011;61070;50.794;7.054;2023-06-05T07:53:36;9.77;;;2.88;;
72924;SDS011;61070;50.794;7.054;2023-06-05T07:56:01;7.20;;;2.83;;
72924;SDS011;61070;50.794;7.054;2023-06-05T07:58:27;11.48;;;3.20;;
72924;SDS011;61070;50.794;7.054;2023-06-05T08:00:53;8.15;;;3.85;;
72924;SDS011;61070;50.794;7.054;2023-06-05T08:03:18;7.68;;;2.55;;
72924;SDS011;61070;50.794;7.054;2023-06-05T08:05:45;9.95;;;2.63;;
72924;SDS011;61070;50.794;7.054;2023-06-05T08:08:14;3.42;;;2.40;;
72924;SDS011;61070;50.794;7.054;2023-06-05T08:10:39;8.75;;;2.28;;
72924;SDS011;61070;50.794;7.054;2023-06-05T08:13:05;7.03;;;2.80;;
72924;SDS011;61070;50.794;7.054;2023-06-05T08:15:31;3.03;;;2.20;;
72924;SDS011;61070;50.794;7.054;2023-06-05T08:17:57;5.53;;;2.25;;
72924;SDS011;61070;50.794;7.054;2023-06-05T08:20:22;8.13;;;2.05;;
72924;SDS011;61070;50.794;7.054;2023-06-05T08:22:47;5.35;;;2.10;;
72924;SDS011;61070;50.794;7.054;2023-06-05T08:25:12;6.75;;;2.00;;
72924;SDS011;61070;50.794;7.054;2023-06-05T08:27:38;5.65;;;1.98;;
72924;SDS011;61070;50.794;7.054;2023-06-05T08:30:03;6.72;;;2.30;;
72924;SDS011;61070;50.794;7.054;2023-06-05T08:32:29;4.10;;;1.95;;
72924;SDS011;61070;50.794;7.054;2023-06-05T08:34:54;5.40;;;1.90;;
72924;SDS011;61070;50.794;7.054;2023-06-05T08:37:20;7.28;;;2.40;;
72924;SDS011;61070;50.794;7.054;2023-06-05T08:39:45;4.72;;;1.90;;
72924;SDS011;61070;50.794;7.054;2023-06-05T08:42:11;3.60;;;2.28;;
72924;SDS011;61070;50.794;7.054;2023-06-05T08:44:40;4.63;;;2.03;;
72924;SDS011;61070;50.794;7.054;2023-06-05T08:47:05;5.10;;;2.35;;
72924;SDS011;61070;50.794;7.054;2023-06-05T08:49:33;4.50;;;2.50;;
72924;SDS011;61070;50.794;7.054;2023-06-05T08:52:03;10.52;;;2.70;;
72924;SDS011;61070;50.794;7.054;2023-06-05T08:54:33;13.60;;;2.73;;
72924;SDS011;61070;50.794;7.054;2023-06-05T08:57:02;8.65;;;2.60;;
72924;SDS011;61070;50.794;7.054;2023-06-05T08:59:29;6.40;;;2.17;;
72924;SDS011;61070;50.794;7.054;2023-06-05T09:01:55;10.30;;;2.97;;
72924;SDS011;61070;50.794;7.054;2023-06-05T09:04:21;13.80;;;2.58;;
72924;SDS011;61070;50.794;7.054;2023-06-05T09:06:49;11.13;;;2.55;;
72924;SDS011;61070;50.794;7.054;2023-06-05T09:09:18;4.78;;;2.60;;
72924;SDS011;61070;50.794;7.054;2023-06-05T09:11:43;8.52;;;2.75;;
72924;SDS011;61070;50.794;7.054;2023-06-05T09:14:09;7.20;;;2.42;;
72924;SDS011;61070;50.794;7.054;2023-06-05T09:16:39;11.73;;;2.58;;
72924;SDS011;61070;50.794;7.054;2023-06-05T09:19:07;11.02;;;2.72;;
72924;SDS011;61070;50.794;7.054;2023-06-05T09:21:33;4.70;;;2.38;;
72924;SDS011;61070;50.794;7.054;2023-06-05T09:29:21;7.68;;;2.42;;
72924;SDS011;61070;50.794;7.054;2023-06-05T09:34:21;12.82;;;1.98;;
72924;SDS011;61070;50.794;7.054;2023-06-05T09:36:50;13.85;;;2.42;;
72924;SDS011;61070;50.794;7.054;2023-06-05T09:39:17;9.52;;;2.38;;
72924;SDS011;61070;50.794;7.054;2023-06-05T09:41:45;8.82;;;3.55;;
72924;SDS011;61070;50.794;7.054;2023-06-05T09:44:13;4.90;;;2.60;;
72924;SDS011;61070;50.794;7.054;2023-06-05T09:49:20;4.70;;;2.50;;
72924;SDS011;61070;50.794;7.054;2023-06-05T09:51:47;5.95;;;2.92;;
72924;SDS011;61070;50.794;7.054;2023-06-05T09:54:13;9.27;;;2.80;;
72924;SDS011;61070;50.794;7.054;2023-06-05T09:56:41;4.90;;;2.40;;
72924;SDS011;61070;50.794;7.054;2023-06-05T09:59:23;6.13;;;2.72;;
72924;SDS011;61070;50.794;7.054;2023-06-05T10:01:53;6.13;;;2.50;;
72924;SDS011;61070;50.794;7.054;2023-06-05T10:04:20;5.13;;;2.28;;
72924;SDS011;61070;50.794;7.054;2023-06-05T10:06:51;6.20;;;2.08;;
72924;SDS011;61070;50.794;7.054;2023-06-05T10:09:19;9.05;;;2.40;;
72924;SDS011;61070;50.794;7.054;2023-06-05T10:11:48;9.68;;;2.15;;
72924;SDS011;61070;50.794;7.054;2023-06-05T10:14:15;6.10;;;2.47;;
72924;SDS011;61070;50.794;7.054;2023-06-05T10:16:41;11.30;;;2.50;;
72924;SDS011;61070;50.794;7.054;2023-06-05T10:19:07;4.28;;;2.25;;
72924;SDS011;61070;50.794;7.054;2023-06-05T10:21:33;8.98;;;2.22;;
72924;SDS011;61070;50.794;7.054;2023-06-05T10:24:04;8.70;;;2.38;;
72924;SDS011;61070;50.794;7.054;2023-06-05T10:29:34;8.60;;;2.97;;
72924;SDS011;61070;50.794;7.054;2023-06-05T10:37:35;3.42;;;2.17;;
72924;SDS011;61070;50.794;7.054;2023-06-05T10:40:06;6.78;;;2.30;;
72924;SDS011;61070;50.794;7.054;2023-06-05T10:42:32;6.63;;;2.25;;
72924;SDS011;61070;50.794;7.054;2023-06-05T10:44:59;7.82;;;2.42;;
72924;SDS011;61070;50.794;7.054;2023-06-05T10:52:47;6.28;;;2.50;;
72924;SDS011;61070;50.794;7.054;2023-06-05T10:55:13;6.28;;;2.83;;
72924;SDS011;61070;50.794;7.054;2023-06-05T11:00:20;4.57;;;2.25;;
72924;SDS011;61070;50.794;7.054;2023-06-05T11:02:47;3.05;;;1.88;;
72924;SDS011;61070;50.794;7.054;2023-06-05T11:05:13;5.07;;;2.50;;
72924;SDS011;61070;50.794;7.054;2023-06-05T11:07:39;5.70;;;2.30;;
72924;SDS011;61070;50.794;7.054;2023-06-05T11:10:10;6.50;;;2.03;;
72924;SDS011;61070;50.794;7.054;2023-06-05T11:17:48;5.85;;;2.45;;
72924;SDS011;61070;50.794;7.054;2023-06-05T11:30:20;5.35;;;2.20;;
72924;SDS011;61070;50.794;7.054;2023-06-05T11:32:47;3.35;;;2.13;;
72924;SDS011;61070;50.794;7.054;2023-06-05T11:35:17;3.93;;;2.57;;
72924;SDS011;61070;50.794;7.054;2023-06-05T11:37:45;4.07;;;2.30;;
72924;SDS011;61070;50.794;7.054;2023-06-05T11:40:11;4.47;;;2.42;;
72924;SDS011;61070;50.794;7.054;2023-06-05T11:42:49;3.67;;;2.20;;
72924;SDS011;61070;50.794;7.054;2023-06-05T11:45:14;3.85;;;2.10;;
72924;SDS011;61070;50.794;7.054;2023-06-05T11:47:40;3.75;;;1.88;;
72924;SDS011;61070;50.794;7.054;2023-06-05T11:50:09;7.93;;;2.45;;
72924;SDS011;61070;50.794;7.054;2023-06-05T11:52:36;6.18;;;2.30;;
72924;SDS011;61070;50.794;7.054;2023-06-05T11:55:14;5.95;;;2.45;;
72924;SDS011;61070;50.794;7.054;2023-06-05T11:57:44;3.83;;;2.25;;
72924;SDS011;61070;50.794;7.054;2023-06-05T12:00:14;5.70;;;2.13;;
72924;SDS011;61070;50.794;7.054;2023-06-05T12:02:41;4.65;;;2.78;;
72924;SDS011;61070;50.794;7.054;2023-06-05T12:05:08;4.75;;;2.28;;
72924;SDS011;61070;50.794;7.054;2023-06-05T12:07:33;11.38;;;2.60;;
72924;SDS011;61070;50.794;7.054;2023-06-05T12:10:02;9.38;;;2.28;;
72924;SDS011;61070;50.794;7.054;2023-06-05T12:12:29;6.20;;;2.17;;
72924;SDS011;61070;50.794;7.054;2023-06-05T12:14:54;5.80;;;2.60;;
72924;SDS011;61070;50.794;7.054;2023-06-05T12:17:21;8.75;;;1.95;;
72924;SDS011;61070;50.794;7.054;2023-06-05T12:19:53;3.58;;;2.00;;
72924;SDS011;61070;50.794;7.054;2023-06-05T12:22:19;3.40;;;1.98;;
72924;SDS011;61070;50.794;7.054;2023-06-05T12:24:45;5.05;;;2.30;;
72924;SDS011;61070;50.794;7.054;2023-06-05T12:27:11;5.45;;;2.40;;
72924;SDS011;61070;50.794;7.054;2023-06-05T12:29:38;4.55;;;2.03;;
72924;SDS011;61070;50.794;7.054;2023-06-05T12:32:18;3.83;;;2.20;;
72924;SDS011;61070;50.794;7.054;2023-06-05T12:34:46;3.40;;;2.00;;
72924;SDS011;61070;50.794;7.054;2023-06-05T12:37:48;10.20;;;2.60;;
72924;SDS011;61070;50.794;7.054;2023-06-05T12:40:10;8.95;;;2.85;;
72924;SDS011;61070;50.794;7.054;2023-06-05T12:42:36;5.90;;;3.10;;
72924;SDS011;61070;50.794;7.054;2023-06-05T12:45:03;5.93;;;2.30;;
72924;SDS011;61070;50.794;7.054;2023-06-05T12:47:30;15.38;;;3.22;;
72924;SDS011;61070;50.794;7.054;2023-06-05T12:49:55;9.70;;;2.33;;
72924;SDS011;61070;50.794;7.054;2023-06-05T12:52:23;3.20;;;2.00;;
72924;SDS011;61070;50.794;7.054;2023-06-05T12:54:54;2.63;;;2.35;;
72924;SDS011;61070;50.794;7.054;2023-06-05T12:57:21;4.07;;;1.98;;
72924;SDS011;61070;50.794;7.054;2023-06-05T12:59:47;11.40;;;1.63;;
72924;SDS011;61070;50.794;7.054;2023-06-05T13:02:12;12.02;;;2.38;;
72924;SDS011;61070;50.794;7.054;2023-06-05T13:04:38;9.23;;;2.63;;
72924;SDS011;61070;50.794;7.054;2023-06-05T13:07:05;3.78;;;1.92;;
72924;SDS011;61070;50.794;7.054;2023-06-05T13:09:31;3.65;;;2.22;;
72924;SDS011;61070;50.794;7.054;2023-06-05T13:11:57;8.93;;;2.78;;
72924;SDS011;61070;50.794;7.054;2023-06-05T13:14:24;3.35;;;2.13;;
72924;SDS011;61070;50.794;7.054;2023-06-05T13:16:50;8.57;;;2.03;;
72924;SDS011;61070;50.794;7.054;2023-06-05T13:19:15;7.63;;;2.35;;
72924;SDS011;61070;50.794;7.054;2023-06-05T13:21:40;5.73;;;1.93;;
72924;SDS011;61070;50.794;7.054;2023-06-05T13:24:05;4.17;;;2.00;;
72924;SDS011;61070;50.794;7.054;2023-06-05T13:26:31;2.78;;;1.92;;
72924;SDS011;61070;50.794;7.054;2023-06-05T13:28:56;4.63;;;2.17;;
72924;SDS011;61070;50.794;7.054;2023-06-05T13:31:21;7.53;;;2.10;;
72924;SDS011;61070;50.794;7.054;2023-06-05T13:33:47;3.55;;;1.88;;
72924;SDS011;61070;50.794;7.054;2023-06-05T13:36:12;4.75;;;2.50;;
72924;SDS011;61070;50.794;7.054;2023-06-05T13:38:38;3.35;;;2.15;;
72924;SDS011;61070;50.794;7.054;2023-06-05T13:41:03;3.08;;;2.13;;
72924;SDS011;61070;50.794;7.054;2023-06-05T13:43:30;7.43;;;2.30;;
72924;SDS011;61070;50.794;7.054;2023-06-05T13:45:56;7.88;;;2.40;;
72924;SDS011;61070;50.794;7.054;2023-06-05T13:48:22;5.90;;;2.67;;
72924;SDS011;61070;50.794;7.054;2023-06-05T13:50:47;3.55;;;2.50;;
72924;SDS011;61070;50.794;7.054;2023-06-05T13:53:13;3.85;;;2.25;;
72924;SDS011;61070;50.794;7.054;2023-06-05T13:55:38;3.55;;;1.80;;
72924;SDS011;61070;50.794;7.054;2023-06-05T13:58:04;4.95;;;2.00;;
72924;SDS011;61070;50.794;7.054;2023-06-05T14:00:30;2.95;;;1.98;;
72924;SDS011;61070;50.794;7.054;2023-06-05T14:02:57;3.63;;;2.35;;
72924;SDS011;61070;50.794;7.054;2023-06-05T14:05:23;4.80;;;2.17;;
72924;SDS011;61070;50.794;7.054;2023-06-05T14:07:49;9.95;;;2.65;;
72924;SDS011;61070;50.794;7.054;2023-06-05T14:10:17;3.78;;;2.72;;
72924;SDS011;61070;50.794;7.054;2023-06-05T14:12:43;3.83;;;2.30;;
72924;SDS011;61070;50.794;7.054;2023-06-05T14:15:09;6.90;;;1.88;;
72924;SDS011;61070;50.794;7.054;2023-06-05T14:17:34;6.50;;;2.00;;
72924;SDS011;61070;50.794;7.054;2023-06-05T14:20:00;4.47;;;2.40;;
72924;SDS011;61070;50.794;7.054;2023-06-05T14:22:25;3.67;;;1.90;;
72924;SDS011;61070;50.794;7.054;2023-06-05T14:24:50;7.70;;;2.50;;
72924;SDS011;61070;50.794;7.054;2023-06-05T14:27:15;5.40;;;2.20;;
72924;SDS011;61070;50.794;7.054;2023-06-05T14:29:43;4.20;;;2.13;;
72924;SDS011;61070;50.794;7.054;2023-06-05T14:32:08;4.05;;;1.95;;
72924;SDS011;61070;50.794;7.054;2023-06-05T14:34:33;6.90;;;2.72;;
72924;SDS011;61070;50.794;7.054;2023-06-05T14:36:59;6.15;;;2.20;;
72924;SDS011;61070;50.794;7.054;2023-06-05T14:39:24;3.10;;;1.95;;
72924;SDS011;61070;50.794;7.054;2023-06-05T14:41:49;2.50;;;1.83;;
72924;SDS011;61070;50.794;7.054;2023-06-05T14:44:14;5.25;;;1.80;;
72924;SDS011;61070;50.794;7.054;2023-06-05T14:46:40;5.72;;;2.08;;
72924;SDS011;61070;50.794;7.054;2023-06-05T14:49:05;7.50;;;2.13;;
72924;SDS011;61070;50.794;7.054;2023-06-05T14:51:31;10.50;;;2.08;;
72924;SDS011;61070;50.794;7.054;2023-06-05T14:53:56;3.63;;;1.90;;
72924;SDS011;61070;50.794;7.054;2023-06-05T14:56:21;7.60;;;2.23;;
72924;SDS011;61070;50.794;7.054;2023-06-05T14:58:47;4.20;;;2.33;;
72924;SDS011;61070;50.794;7.054;2023-06-05T15:01:12;5.90;;;2.63;;
72924;SDS011;61070;50.794;7.054;2023-06-05T15:03:39;2.70;;;2.00;;
72924;SDS011;61070;50.794;7.054;2023-06-05T15:06:04;8.70;;;2.10;;
72924;SDS011;61070;50.794;7.054;2023-06-05T15:08:30;4.05;;;2.17;;
72924;SDS011;61070;50.794;7.054;2023-06-05T15:10:55;3.53;;;2.07;;
72924;SDS011;61070;50.794;7.054;2023-06-05T15:13:21;8.13;;;2.43;;
72924;SDS011;61070;50.794;7.054;2023-06-05T15:15:46;6.63;;;2.25;;
72924;SDS011;61070;50.794;7.054;2023-06-05T15:18:12;3.35;;;2.40;;
72924;SDS011;61070;50.794;7.054;2023-06-05T15:20:37;6.57;;;2.35;;
72924;SDS011;61070;50.794;7.054;2023-06-05T15:23:03;3.97;;;2.27;;
72924;SDS011;61070;50.794;7.054;2023-06-05T15:25:28;5.78;;;2.15;;
72924;SDS011;61070;50.794;7.054;2023-06-05T15:27:53;2.97;;;2.10;;
72924;SDS011;61070;50.794;7.054;2023-06-05T15:30:19;4.82;;;2.22;;